Time;durP1;ratioP1;P1;durP2;ratioP2;P2;SDS_P1;SDS_P2;PMS_P1;PMS_P2;Temp;Humidity;BMP_temperature;BMP_pressure;BME280_temperature;BME280_humidity;BME280_pressure;Samples;Min_cycle;Max_cycle;Signal;HPM_P1;HPM_P2
2021/11/27 00:01:35;;;;;;;28.67;12.82;;;;;;;0.95;100.00;98653.69;5090359;28;20031;-79
2021/11/27 00:04:01;;;;;;;23.95;11.30;;;;;;;0.83;100.00;98635.53;5090953;28;20032;-78
2021/11/27 00:06:27;;;;;;;29.25;13.57;;;;;;;0.84;100.00;98654.75;5073389;28;20040;-79
2021/11/27 00:08:53;;;;;;;31.00;13.25;;;;;;;0.79;100.00;98644.69;5090869;28;20032;-78
2021/11/27 00:11:19;;;;;;;28.25;11.82;;;;;;;0.81;100.00;98661.13;5090088;28;20063;-78
2021/11/27 00:13:45;;;;;;;28.10;13.65;;;;;;;0.78;100.00;98664.06;5090632;28;20039;-78
2021/11/27 00:16:10;;;;;;;29.95;13.38;;;;;;;0.85;100.00;98674.81;5090923;28;20111;-78
2021/11/27 00:18:36;;;;;;;28.98;13.52;;;;;;;0.87;100.00;98678.13;5090163;28;20486;-79
2021/11/27 00:21:06;;;;;;;28.15;13.25;;;;;;;0.78;100.00;98661.44;5093943;28;20047;-78
2021/11/27 00:23:34;;;;;;;31.45;12.13;;;;;;;0.89;100.00;98668.28;5094607;28;20044;-79
2021/11/27 00:26:01;;;;;;;28.75;12.70;;;;;;;0.87;100.00;98669.38;5076946;28;20032;-79
2021/11/27 00:28:26;;;;;;;29.05;12.90;;;;;;;0.83;100.00;98661.81;5093800;28;20484;-79
2021/11/27 00:30:56;;;;;;;27.30;12.85;;;;;;;0.79;100.00;98663.09;5094858;28;20043;-79
2021/11/27 00:33:22;;;;;;;31.52;14.27;;;;;;;0.67;100.00;98647.72;5093809;28;20024;-79
2021/11/27 00:35:48;;;;;;;29.65;13.15;;;;;;;0.79;100.00;98676.22;5093533;28;20029;-79
2021/11/27 00:38:14;;;;;;;29.73;13.60;;;;;;;0.76;100.00;98676.53;5093820;28;20829;-78
2021/11/27 00:40:41;;;;;;;28.08;12.75;;;;;;;0.71;100.00;98670.09;5094541;28;20122;-78
2021/11/27 00:43:08;;;;;;;35.15;14.27;;;;;;;0.87;100.00;98693.88;5093587;28;20024;-78
2021/11/27 00:45:35;;;;;;;25.65;12.13;;;;;;;1.03;100.00;98703.69;5093395;28;20314;-79
2021/11/27 00:48:02;;;;;;;31.27;14.20;;;;;;;1.10;100.00;98703.91;5093518;28;20375;-79
2021/11/27 00:50:30;;;;;;;;;;;;;;;1.02;100.00;98686.28;5076750;28;20046;-79
2021/11/27 00:53:02;;;;;;;32.35;15.32;;;;;;;0.92;100.00;98665.34;5076395;28;20352;-79
2021/11/27 00:55:28;;;;;;;30.63;13.88;;;;;;;1.02;100.00;98691.53;5076208;28;20032;-78
2021/11/27 00:57:54;;;;;;;37.72;16.67;;;;;;;0.99;100.00;98687.41;5076568;28;20120;-78
2021/11/27 01:00:24;;;;;;;35.65;15.18;;;;;;;1.03;100.00;98694.00;5076358;28;20036;-78
2021/11/27 01:02:50;;;;;;;35.72;16.10;;;;;;;1.02;100.00;98689.72;5093587;28;20111;-78
2021/11/27 01:05:21;;;;;;;39.67;15.38;;;;;;;1.06;100.00;98698.13;5093090;28;20046;-79
2021/11/27 01:07:47;;;;;;;35.00;14.68;;;;;;;1.08;100.00;98697.97;5092973;28;20114;-79
2021/11/27 01:10:19;;;;;;;30.90;13.05;;;;;;;1.10;100.00;98699.50;5093280;28;20024;-79
2021/11/27 01:12:44;;;;;;;32.92;14.38;;;;;;;1.13;100.00;98707.06;5093122;28;20071;-78
2021/11/27 01:15:13;;;;;;;36.38;15.00;;;;;;;1.13;100.00;98698.38;5092527;28;20056;-79
2021/11/27 01:17:39;;;;;;;38.40;15.25;;;;;;;1.17;100.00;98704.94;5076171;28;20050;-79
2021/11/27 01:20:08;;;;;;;33.80;14.02;;;;;;;1.17;100.00;98700.53;5092933;28;20035;-79
2021/11/27 01:22:34;;;;;;;31.55;15.43;;;;;;;1.22;100.00;98700.91;5092864;28;20040;-79
2021/11/27 01:24:59;;;;;;;40.10;14.63;;;;;;;1.26;100.00;98686.47;5076000;28;20494;-79
2021/11/27 01:27:27;;;;;;;31.52;15.85;;;;;;;1.31;100.00;98688.66;5093844;28;20028;-78
2021/11/27 01:29:52;;;;;;;39.38;16.30;;;;;;;1.35;100.00;98682.06;5092607;28;20381;-79
2021/11/27 01:32:18;;;;;;;40.33;16.80;;;;;;;1.33;100.00;98672.69;5092758;28;20028;-79
2021/11/27 01:34:47;;;;;;;36.63;16.52;;;;;;;1.39;100.00;98672.91;5092550;28;20044;-79
2021/11/27 01:37:13;;;;;;;36.40;14.63;;;;;;;1.51;100.00;98676.09;5092670;28;20024;-79
2021/11/27 01:39:41;;;;;;;46.00;18.75;;;;;;;1.49;100.00;98646.50;5092621;28;20104;-79
2021/11/27 01:42:07;;;;;;;30.20;14.35;;;;;;;1.48;100.00;98644.88;5092684;28;20036;-80
2021/11/27 01:44:33;;;;;;;33.13;15.15;;;;;;;1.59;100.00;98647.25;5092403;28;20028;-79
2021/11/27 01:46:58;;;;;;;35.50;15.88;;;;;;;1.56;100.00;98637.00;5092812;28;20019;-79
2021/11/27 01:49:26;;;;;;;33.13;13.98;;;;;;;1.61;100.00;98618.13;5092416;28;20047;-79
2021/11/27 01:51:52;;;;;;;34.88;15.95;;;;;;;1.56;100.00;98604.63;5092408;28;20039;-79
2021/11/27 01:54:18;;;;;;;32.70;14.82;;;;;;;1.52;100.00;98593.59;5092280;28;20373;-79
2021/11/27 01:56:51;;;;;;;35.17;15.20;;;;;;;1.51;100.00;98586.69;5092530;28;20024;-79
2021/11/27 01:59:23;;;;;;;38.58;18.38;;;;;;;1.55;100.00;98585.41;5076396;28;20039;-79
2021/11/27 02:01:49;;;;;;;31.63;15.85;;;;;;;1.52;100.00;98577.81;5075355;28;20039;-79
2021/11/27 02:04:20;;;;;;;29.27;15.27;;;;;;;1.54;100.00;98575.84;5075905;28;20196;-79
2021/11/27 02:06:47;;;;;;;40.10;15.65;;;;;;;1.59;100.00;98584.13;5075479;28;20032;-79
2021/11/27 02:09:17;;;;;;;33.15;15.70;;;;;;;1.58;100.00;98571.94;5092198;28;20034;-80
2021/11/27 02:11:45;;;;;;;36.15;16.33;;;;;;;1.63;100.00;98580.16;5075558;28;20101;-79
2021/11/27 02:14:11;;;;;;;;;;;;;;;1.56;100.00;98559.91;5092013;28;20032;-79
2021/11/27 02:16:50;;;;;;;35.45;16.23;;;;;;;1.58;100.00;98560.59;5076462;28;20265;-79
2021/11/27 02:19:18;;;;;;;35.85;14.95;;;;;;;1.55;100.00;98564.34;5091839;28;20027;-79
2021/11/27 02:21:45;;;;;;;32.70;14.32;;;;;;;1.65;100.00;98572.13;5092103;28;20032;-79
2021/11/27 02:24:15;;;;;;;33.83;15.90;;;;;;;1.60;100.00;98543.66;5091582;28;20119;-78
2021/11/27 02:26:42;;;;;;;35.17;15.35;;;;;;;1.59;100.00;98556.97;5074808;28;20031;-79
2021/11/27 02:29:13;;;;;;;35.47;17.23;;;;;;;1.63;100.00;98555.66;5072602;28;20024;-79
2021/11/27 02:31:39;;;;;;;36.88;18.08;;;;;;;1.53;100.00;98542.66;5090527;28;20036;-79
2021/11/27 02:34:05;;;;;;;39.03;15.43;;;;;;;1.46;100.00;98539.00;5089108;28;20047;-79
2021/11/27 02:36:33;;;;;;;40.72;15.88;;;;;;;1.48;100.00;98552.81;5089444;28;20035;-79
2021/11/27 02:38:59;;;;;;;35.92;18.08;;;;;;;1.36;100.00;98538.28;5089556;28;20023;-79
2021/11/27 02:41:25;;;;;;;34.60;16.52;;;;;;;1.55;100.00;98564.34;5089328;28;20038;-79
2021/11/27 02:43:51;;;;;;;38.22;17.15;;;;;;;1.50;100.00;98558.75;5088110;28;20361;-79
2021/11/27 02:46:17;;;;;;;33.50;16.40;;;;;;;1.55;100.00;98576.69;5072308;28;20031;-79
2021/11/27 02:48:43;;;;;;;41.53;17.40;;;;;;;1.57;100.00;98575.56;5089185;28;20036;-79
2021/11/27 02:51:09;;;;;;;;;;;;;;;1.55;100.00;98576.69;5090501;28;20617;-79
2021/11/27 02:53:35;;;;;;;43.28;17.73;;;;;;;1.50;100.00;98568.44;5070668;28;19919;-79
2021/11/27 02:56:03;;;;;;;33.92;14.60;;;;;;;1.48;100.00;98573.88;5072259;28;20039;-78
2021/11/27 02:58:29;;;;;;;49.70;18.92;;;;;;;1.44;100.00;98564.63;5089052;28;20067;-79
2021/11/27 03:00:57;;;;;;;40.22;17.55;;;;;;;1.50;100.00;98582.44;5089026;28;20117;-79
2021/11/27 03:03:25;;;;;;;39.30;17.77;;;;;;;1.50;100.00;98579.78;5088807;28;20051;-79
2021/11/27 03:05:51;;;;;;;35.78;15.30;;;;;;;1.51;100.00;98591.94;5071801;28;20031;-79
2021/11/27 03:08:17;;;;;;;37.83;16.23;;;;;;;1.45;100.00;98569.75;5088582;28;20130;-79
2021/11/27 03:10:44;;;;;;;32.60;15.50;;;;;;;1.52;100.00;98577.81;5089714;28;20115;-79
2021/11/27 03:13:09;;;;;;;37.88;17.95;;;;;;;1.51;100.00;98575.34;5089408;28;20082;-79
2021/11/27 03:15:41;;;;;;;34.28;16.67;;;;;;;1.58;100.00;98582.44;5090672;28;20115;-79
2021/11/27 03:18:08;;;;;;;34.30;15.77;;;;;;;1.53;100.00;98558.44;5090824;28;20047;-79
2021/11/27 03:20:33;;;;;;;32.20;14.95;;;;;;;1.42;100.00;98541.13;5090872;28;20031;-79
2021/11/27 03:22:59;;;;;;;39.63;16.33;;;;;;;1.55;100.00;98560.91;5091771;28;20407;-79
2021/11/27 03:25:25;;;;;;;36.47;16.25;;;;;;;1.58;100.00;98571.94;5073589;28;20054;-79
2021/11/27 03:27:51;;;;;;;31.42;15.18;;;;;;;1.50;100.00;98544.75;5091737;28;20035;-79
2021/11/27 03:30:19;;;;;;;32.85;15.63;;;;;;;1.65;100.00;98577.38;5073971;28;20036;-79
2021/11/27 03:32:50;;;;;;;32.92;14.65;;;;;;;1.62;100.00;98565.38;5090899;28;20036;-79
2021/11/27 03:35:19;;;;;;;34.22;14.50;;;;;;;1.59;100.00;98560.44;5074014;28;20042;-79
2021/11/27 03:37:47;;;;;;;33.03;15.13;;;;;;;1.58;100.00;98543.00;5090677;28;20030;-79
2021/11/27 03:40:16;;;;;;;32.95;14.60;;;;;;;1.62;100.00;98551.41;5090581;28;20103;-79
2021/11/27 03:42:43;;;;;;;30.02;15.23;;;;;;;1.67;100.00;98565.72;5090550;28;20028;-79
2021/11/27 03:45:12;;;;;;;43.95;17.67;;;;;;;1.66;100.00;98550.09;5073935;28;20101;-79
2021/11/27 03:47:54;;;;;;;46.42;16.20;;;;;;;1.68;100.00;98546.31;5073972;28;20039;-79
2021/11/27 03:50:20;;;;;;;36.38;15.40;;;;;;;1.59;100.00;98523.63;5091458;28;20115;-80
2021/11/27 03:52:45;;;;;;;35.63;14.38;;;;;;;1.68;100.00;98540.22;5073496;28;20119;-79
2021/11/27 03:55:13;;;;;;;30.15;13.40;;;;;;;1.72;100.00;98548.63;5089605;28;20082;-79
2021/11/27 03:57:38;;;;;;;28.80;14.10;;;;;;;1.64;100.00;98537.09;5090214;28;20602;-79
2021/11/27 04:00:07;;;;;;;30.40;14.45;;;;;;;1.61;100.00;98531.31;5090243;28;20040;-79
2021/11/27 04:02:40;;;;;;;;;;;;;;;1.73;100.00;98552.91;5091189;28;20032;-80
2021/11/27 04:05:06;;;;;;;36.53;14.90;;;;;;;1.63;100.00;98547.78;5090250;28;19961;-79
2021/11/27 04:07:32;;;;;;;43.10;18.08;;;;;;;1.81;100.00;98569.53;5090356;28;20043;-80
2021/11/27 04:09:58;;;;;;;37.88;15.13;;;;;;;1.85;100.00;98567.41;5090273;28;20036;-80
2021/11/27 04:12:23;;;;;;;29.35;14.68;;;;;;;1.84;100.00;98558.69;5073638;28;20029;-79
2021/11/27 04:14:49;;;;;;;33.33;14.05;;;;;;;1.86;100.00;98548.03;5090080;28;20036;-79
2021/11/27 04:17:15;;;;;;;37.22;16.05;;;;;;;1.89;100.00;98564.28;5090396;28;20354;-80
2021/11/27 04:19:42;;;;;;;31.50;15.63;;;;;;;1.90;100.00;98554.63;5090313;28;20133;-79
2021/11/27 04:22:09;;;;;;;34.45;15.82;;;;;;;1.86;100.00;98545.38;5090360;28;20027;-79
2021/11/27 04:24:36;;;;;;;32.38;13.77;;;;;;;1.88;100.00;98546.06;5073631;28;20036;-79
2021/11/27 04:27:02;;;;;;;38.08;15.40;;;;;;;1.85;100.00;98541.09;5090166;28;20039;-79
2021/11/27 04:29:28;;;;;;;33.60;15.00;;;;;;;1.71;100.00;98512.78;5073588;28;20381;-79
2021/11/27 04:31:54;;;;;;;39.40;16.17;;;;;;;1.78;100.00;98534.81;5090294;28;20040;-80
2021/11/27 04:34:19;;;;;;;32.03;15.20;;;;;;;1.77;100.00;98541.09;5073109;28;20024;-79
2021/11/27 04:36:45;;;;;;;32.17;15.97;;;;;;;1.83;100.00;98559.69;5073090;28;20289;-79
2021/11/27 04:39:12;;;;;;;31.15;14.65;;;;;;;1.91;100.00;98577.31;5089897;28;20282;-79
2021/11/27 04:41:38;;;;;;;38.13;14.10;;;;;;;1.87;100.00;98568.91;5089594;28;20024;-79
2021/11/27 04:44:04;;;;;;;43.35;17.38;;;;;;;2.07;100.00;98608.94;5089359;28;20050;-79
2021/11/27 04:46:30;;;;;;;35.17;15.13;;;;;;;1.92;100.00;98557.91;5072406;28;20040;-79
2021/11/27 04:48:55;;;;;;;39.90;16.40;;;;;;;1.89;100.00;98548.50;5089806;28;20047;-79
2021/11/27 04:51:21;;;;;;;36.67;15.38;;;;;;;1.87;100.00;98541.75;5089583;28;20036;-79
2021/11/27 04:53:46;;;;;;;35.38;14.48;;;;;;;1.83;100.00;98535.19;5072593;28;20036;-79
2021/11/27 04:56:12;;;;;;;38.70;16.10;;;;;;;1.99;100.00;98564.19;5089738;28;20550;-78
2021/11/27 04:58:37;;;;;;;42.13;15.98;;;;;;;1.94;100.00;98540.13;5073013;28;20028;-79
2021/11/27 05:01:05;;;;;;;37.17;15.52;;;;;;;1.94;100.00;98540.13;5089543;28;20042;-79
2021/11/27 05:03:51;;;;;;;29.42;15.07;;;;;;;2.01;100.00;98541.13;5093310;28;20427;-80
2021/11/27 05:06:16;;;;;;;33.63;13.70;;;;;;;2.00;100.00;98522.88;5074707;28;20032;-79
2021/11/27 05:08:41;;;;;;;32.72;15.15;;;;;;;2.00;100.00;98533.41;5093550;28;20464;-79
2021/11/27 05:11:07;;;;;;;35.78;14.93;;;;;;;2.06;100.00;98540.66;5076732;28;20039;-79
2021/11/27 05:13:33;;;;;;;34.10;14.48;;;;;;;2.12;100.00;98545.28;5092736;28;20262;-80
2021/11/27 05:15:58;;;;;;;27.92;14.70;;;;;;;2.18;100.00;98549.06;5093554;28;20032;-79
2021/11/27 05:18:24;;;;;;;27.92;14.32;;;;;;;1.95;100.00;98515.47;5076172;28;20024;-79
2021/11/27 05:21:16;;;;;;;34.90;14.45;;;;;;;1.97;100.00;98502.97;5093442;28;20051;-79
2021/11/27 05:23:41;;;;;;;34.67;13.98;;;;;;;1.98;100.00;98524.84;5093060;28;20032;-79
2021/11/27 05:26:33;;;;;;;30.67;15.43;;;;;;;1.95;100.00;98530.44;5092443;28;20096;-79
2021/11/27 05:29:17;;;;;;;34.78;15.20;;;;;;;1.95;100.00;98526.00;5093600;28;20432;-80
2021/11/27 05:32:06;;;;;;;35.28;13.82;;;;;;;1.83;100.00;98519.41;5093162;28;20119;-79
2021/11/27 05:34:38;;;;;;;33.38;14.48;;;;;;;1.94;100.00;98540.13;5076856;28;20411;-79
2021/11/27 05:37:05;;;;;;;35.20;14.82;;;;;;;1.89;100.00;98537.16;5076135;28;20043;-79
2021/11/27 05:39:32;;;;;;;35.53;14.80;;;;;;;1.93;100.00;98543.75;5076101;28;20123;-79
2021/11/27 05:41:58;;;;;;;;;;;;;;;1.99;100.00;98552.81;5093442;28;20027;-79
2021/11/27 05:44:27;;;;;;;31.45;15.90;;;;;;;1.96;100.00;98546.06;5092667;28;20349;-80
2021/11/27 05:46:53;;;;;;;38.20;14.93;;;;;;;2.01;100.00;98545.56;5075974;28;20131;-79
2021/11/27 05:49:18;;;;;;;37.75;16.38;;;;;;;1.96;100.00;98540.78;5092374;28;20066;-80
2021/11/27 05:51:57;;;;;;;32.72;14.77;;;;;;;1.91;100.00;98519.41;5076244;28;20051;-80
2021/11/27 05:54:22;;;;;;;33.88;15.80;;;;;;;1.79;100.00;98511.00;5092461;28;20040;-79
2021/11/27 05:56:48;;;;;;;38.17;17.37;;;;;;;1.82;100.00;98525.63;5092890;28;20056;-79
2021/11/27 05:59:13;;;;;;;44.25;18.67;;;;;;;1.85;100.00;98533.19;5075851;28;20028;-79
2021/11/27 06:01:39;;;;;;;35.58;15.93;;;;;;;1.82;100.00;98528.28;5092720;28;20105;-79
2021/11/27 06:04:04;;;;;;;37.00;16.05;;;;;;;1.96;100.00;98569.75;5093263;28;20071;-80
2021/11/27 06:06:31;;;;;;;44.33;17.27;;;;;;;1.89;100.00;98537.97;5075731;28;20334;-80
2021/11/27 06:08:56;;;;;;;34.25;17.13;;;;;;;1.79;100.00;98512.81;5092572;28;20039;-80
2021/11/27 06:11:23;;;;;;;35.45;17.08;;;;;;;1.97;100.00;98558.25;5075669;28;20487;-80
2021/11/27 06:13:49;;;;;;;36.65;16.70;;;;;;;2.09;100.00;98580.66;5093070;28;20059;-80
2021/11/27 06:16:14;;;;;;;;;;;;;;;1.89;100.00;98532.72;5092755;28;20119;-80
2021/11/27 06:18:40;;;;;;;39.38;16.58;;;;;;;1.90;100.00;98549.34;5075639;28;20019;-80
2021/11/27 06:21:06;;;;;;;34.25;17.80;;;;;;;1.84;100.00;98542.09;5075626;28;20126;-80
2021/11/27 06:23:32;;;;;;;38.92;16.10;;;;;;;1.72;100.00;98524.97;5093271;28;20042;-81
2021/11/27 06:25:58;;;;;;;35.30;16.35;;;;;;;1.76;100.00;98539.44;5075633;28;20101;-80
2021/11/27 06:28:23;;;;;;;35.88;16.88;;;;;;;1.67;100.00;98531.53;5092229;28;20139;-80
2021/11/27 06:30:49;;;;;;;36.55;16.65;;;;;;;1.67;100.00;98538.59;5092095;28;20073;-79
2021/11/27 06:33:16;;;;;;;36.72;16.98;;;;;;;1.67;100.00;98542.03;5075263;28;20035;-80
2021/11/27 06:35:41;;;;;;;38.17;17.20;;;;;;;1.64;100.00;98554.69;5091696;28;20050;-79
2021/11/27 06:38:08;;;;;;;42.33;16.98;;;;;;;1.80;100.00;98581.06;5092595;28;20512;-79
2021/11/27 06:40:34;;;;;;;40.03;17.15;;;;;;;1.77;100.00;98575.28;5092695;28;20445;-79
2021/11/27 06:43:14;;;;;;;32.70;17.75;;;;;;;1.67;100.00;98557.00;5077052;28;20054;-80
2021/11/27 06:46:16;;;;;;;37.95;16.67;;;;;;;1.62;100.00;98552.22;5096065;28;20075;-80
2021/11/27 06:48:41;;;;;;;39.78;18.02;;;;;;;1.57;100.00;98557.13;5091116;28;20063;-80
2021/11/27 06:51:09;;;;;;;41.13;17.52;;;;;;;1.66;100.00;98584.28;5090556;28;20032;-80
2021/11/27 06:53:35;;;;;;;42.80;18.95;;;;;;;1.60;100.00;98577.84;5089743;28;20032;-79
2021/11/27 06:56:01;;;;;;;44.67;20.42;;;;;;;1.71;100.00;98607.47;5073111;28;20039;-79
2021/11/27 06:58:27;;;;;;;32.88;17.42;;;;;;;1.63;100.00;98595.94;5073924;28;20429;-79
2021/11/27 07:01:09;;;;;;;42.85;18.95;;;;;;;1.61;100.00;98602.34;5076494;28;20092;-79
2021/11/27 07:03:54;;;;;;;44.00;18.38;;;;;;;1.51;100.00;98591.94;5091681;28;20083;-79
2021/11/27 07:06:42;;;;;;;38.92;18.05;;;;;;;1.49;100.00;98612.31;5090325;28;20047;-79
2021/11/27 07:09:09;;;;;;;46.03;20.00;;;;;;;1.46;100.00;98615.28;5073568;28;20040;-78
2021/11/27 07:11:56;;;;;;;48.75;20.83;;;;;;;1.48;100.00;98632.53;5090348;28;20056;-78
2021/11/27 07:14:21;;;;;;;41.85;18.63;;;;;;;1.36;100.00;98625.06;5089558;28;20070;-78
2021/11/27 07:16:47;;;;;;;45.55;20.13;;;;;;;1.50;100.00;98668.38;5090189;28;20036;-77
2021/11/27 07:19:13;;;;;;;43.17;21.00;;;;;;;1.47;100.00;98672.13;5089420;28;20032;-77
2021/11/27 07:21:38;;;;;;;;;;;;;;;1.41;100.00;98675.41;5072845;28;20040;-77
2021/11/27 07:24:05;;;;;;;47.85;20.63;;;;;;;1.35;100.00;98673.38;5088993;28;19912;-77
2021/11/27 07:26:31;;;;;;;47.03;21.55;;;;;;;1.27;100.00;98671.53;5072306;28;20032;-78
2021/11/27 07:29:06;;;;;;;47.42;20.52;;;;;;;1.37;100.00;98700.34;5073347;28;20272;-77
2021/11/27 07:31:34;;;;;;;42.78;20.70;;;;;;;1.26;100.00;98694.38;5089283;28;20365;-78
2021/11/27 07:34:00;;;;;;;43.60;20.02;;;;;;;1.32;100.00;98713.94;5090184;28;20035;-78
2021/11/27 07:36:25;;;;;;;44.95;20.67;;;;;;;1.37;100.00;98732.72;5090405;28;20040;-78
2021/11/27 07:38:51;;;;;;;49.75;21.50;;;;;;;1.26;100.00;98728.53;5090561;28;20111;-78
2021/11/27 07:41:17;;;;;;;44.70;20.27;;;;;;;1.20;100.00;98731.75;5089816;28;20109;-78
2021/11/27 07:43:43;;;;;;;45.97;20.83;;;;;;;1.24;100.00;98751.53;5090162;28;20104;-78
2021/11/27 07:46:18;;;;;;;42.43;20.57;;;;;;;1.29;100.00;98771.25;5074410;28;20040;-78
2021/11/27 07:49:14;;;;;;;49.15;21.20;;;;;;;1.34;100.00;98780.34;5088221;28;20047;-78
2021/11/27 07:51:58;;;;;;;49.92;21.27;;;;;;;1.38;100.00;98796.63;5090446;28;20370;-78
2021/11/27 07:54:24;;;;;;;48.75;22.23;;;;;;;1.40;100.00;98805.22;5088719;28;20036;-77
2021/11/27 07:56:51;;;;;;;46.15;21.00;;;;;;;1.33;100.00;98804.16;5072579;28;20024;-78
2021/11/27 07:59:17;;;;;;;56.10;20.77;;;;;;;1.44;100.00;98817.09;5089180;28;20043;-78
2021/11/27 08:01:43;;;;;;;46.63;21.35;;;;;;;1.25;100.00;98782.06;5072546;28;20028;-78
2021/11/27 08:04:08;;;;;;;44.53;20.53;;;;;;;1.21;100.00;98796.50;5072221;28;20499;-78
2021/11/27 08:06:34;;;;;;;50.75;22.15;;;;;;;1.20;100.00;98810.63;5089678;28;20278;-78
2021/11/27 08:08:59;;;;;;;47.78;21.60;;;;;;;1.26;100.00;98825.81;5090857;28;20101;-80
2021/11/27 08:11:25;;;;;;;43.47;21.40;;;;;;;1.44;100.00;98854.72;5091155;28;20055;-79
2021/11/27 08:13:51;;;;;;;51.75;19.08;;;;;;;1.37;100.00;98837.06;5089752;28;20441;-79
2021/11/27 08:16:18;;;;;;;49.50;19.60;;;;;;;1.22;100.00;98823.63;5089985;28;20072;-79
2021/11/27 08:18:44;;;;;;;40.00;19.45;;;;;;;1.10;100.00;98809.88;5090992;28;20054;-79
2021/11/27 08:21:09;;;;;;;43.25;19.55;;;;;;;1.12;100.00;98817.59;5091170;28;20598;-79
2021/11/27 08:23:35;;;;;;;47.58;19.48;;;;;;;1.04;100.00;98827.06;5089997;28;20046;-79
2021/11/27 08:26:01;;;;;;;47.83;22.65;;;;;;;1.07;100.00;98828.56;5090143;28;20460;-79
2021/11/27 08:28:27;;;;;;;49.15;21.10;;;;;;;1.11;100.00;98845.69;5090143;28;20085;-80
2021/11/27 08:30:52;;;;;;;49.33;20.55;;;;;;;1.08;100.00;98843.38;5090119;28;20093;-79
2021/11/27 08:33:18;;;;;;;52.03;21.47;;;;;;;1.18;100.00;98870.41;5090205;28;20038;-79
2021/11/27 08:35:43;;;;;;;50.05;23.55;;;;;;;0.97;100.00;98836.50;5089591;28;20036;-79
2021/11/27 08:38:09;;;;;;;43.13;20.85;;;;;;;1.07;100.00;98865.34;5090025;28;20032;-78
2021/11/27 08:40:34;;;;;;;48.28;19.95;;;;;;;1.07;100.00;98867.97;5090079;28;20042;-77
2021/11/27 08:43:01;;;;;;;54.28;21.63;;;;;;;0.93;100.00;98855.34;5092568;28;20357;-77
2021/11/27 08:45:27;;;;;;;49.65;21.88;;;;;;;1.00;100.00;98885.31;5092223;28;20027;-77
2021/11/27 08:47:52;;;;;;;46.72;19.83;;;;;;;1.14;100.00;98905.03;5092298;28;20407;-76
2021/11/27 08:50:18;;;;;;;49.22;20.70;;;;;;;1.03;100.00;98892.91;5075343;28;20036;-76
2021/11/27 08:52:44;;;;;;;52.53;22.13;;;;;;;0.84;100.00;98867.56;5092183;28;20035;-76
2021/11/27 08:55:10;;;;;;;47.85;22.20;;;;;;;0.96;100.00;98897.94;5091615;28;20417;-76
2021/11/27 08:57:36;;;;;;;52.40;21.60;;;;;;;1.01;100.00;98913.25;5092137;28;20059;-76
2021/11/27 09:00:03;;;;;;;51.95;21.40;;;;;;;1.13;100.00;98930.47;5093041;28;20043;-76
2021/11/27 09:02:29;;;;;;;57.63;22.75;;;;;;;1.15;100.00;98933.78;5075311;28;20023;-77
2021/11/27 09:04:55;;;;;;;48.78;20.48;;;;;;;1.25;100.00;98950.34;5074769;28;20024;-77
2021/11/27 09:07:20;;;;;;;54.28;20.92;;;;;;;1.28;100.00;98943.94;5092017;28;20035;-76
2021/11/27 09:09:48;;;;;;;53.95;23.08;;;;;;;1.22;100.00;98932.22;5092852;28;20032;-76
2021/11/27 09:12:18;;;;;;;59.50;21.05;;;;;;;1.37;100.00;98969.38;5091191;28;20079;-75
2021/11/27 09:14:44;;;;;;;42.65;19.27;;;;;;;1.43;100.00;98954.81;5074480;28;20032;-76
2021/11/27 09:17:10;;;;;;;58.23;21.43;;;;;;;1.36;100.00;98951.09;5074907;28;20399;-76
2021/11/27 09:19:36;;;;;;;62.72;24.48;;;;;;;1.36;100.00;98953.72;5092576;28;20042;-76
2021/11/27 09:22:02;;;;;;;41.13;19.90;;;;;;;1.17;100.00;98920.50;5091842;28;20036;-76
2021/11/27 09:24:28;;;;;;;49.80;21.42;;;;;;;1.38;100.00;98970.19;5092224;28;20032;-77
2021/11/27 09:26:54;;;;;;;46.78;20.73;;;;;;;1.47;100.00;98996.47;5092373;28;20039;-77
2021/11/27 09:29:20;;;;;;;48.80;21.15;;;;;;;1.34;100.00;98951.25;5074668;28;20028;-77
2021/11/27 09:31:47;;;;;;;51.30;21.20;;;;;;;1.55;100.00;98998.34;5092508;28;20035;-76
2021/11/27 09:34:12;;;;;;;47.22;20.38;;;;;;;1.46;100.00;98978.19;5090984;28;20109;-77
2021/11/27 09:36:40;;;;;;;57.15;22.42;;;;;;;1.58;100.00;99003.31;5074546;28;20132;-77
2021/11/27 09:39:11;;;;;;;53.83;22.10;;;;;;;1.51;100.00;98983.81;5092006;28;20028;-78
2021/11/27 09:41:39;;;;;;;52.72;20.88;;;;;;;1.49;100.00;98983.13;5092283;28;20046;-77
2021/11/27 09:44:05;;;;;;;49.10;20.95;;;;;;;1.71;100.00;99010.00;5090772;28;20118;-77
2021/11/27 09:46:34;;;;;;;53.67;22.58;;;;;;;1.74;100.00;99015.00;5092086;28;20031;-77
2021/11/27 09:49:04;;;;;;;46.78;20.05;;;;;;;1.57;100.00;98979.75;5091160;28;20040;-77
2021/11/27 09:51:32;;;;;;;46.70;18.38;;;;;;;1.54;100.00;98969.53;5091329;28;20369;-77
2021/11/27 09:54:00;;;;;;;46.85;20.88;;;;;;;1.71;100.00;98996.84;5090439;28;20047;-76
2021/11/27 09:56:27;;;;;;;47.75;22.50;;;;;;;1.58;100.00;98963.03;5090994;28;20101;-77
2021/11/27 09:58:53;;;;;;;53.70;22.20;;;;;;;1.44;100.00;98943.31;5091936;28;20027;-76
2021/11/27 10:01:23;;;;;;;50.00;21.60;;;;;;;1.45;100.00;98939.69;5090891;28;20032;-77
2021/11/27 10:03:58;;;;;;;45.28;21.45;;;;;;;1.43;100.00;98953.00;5091529;28;20454;-76
2021/11/27 10:06:25;;;;;;;51.70;22.27;;;;;;;1.44;100.00;98966.97;5090926;28;20513;-76
2021/11/27 10:08:50;;;;;;;48.92;20.90;;;;;;;1.63;100.00;99016.84;5091694;28;20096;-77
2021/11/27 10:11:16;;;;;;;49.88;20.80;;;;;;;1.55;100.00;98992.25;5090751;28;20605;-76
2021/11/27 10:13:41;;;;;;;50.30;22.70;;;;;;;1.48;100.00;98990.22;5090445;28;20055;-76
2021/11/27 10:16:07;;;;;;;47.83;22.27;;;;;;;1.62;100.00;99017.00;5090603;28;20084;-76
2021/11/27 10:18:32;;;;;;;42.87;19.90;;;;;;;1.61;100.00;99016.16;5091606;28;20057;-76
2021/11/27 10:21:17;;;;;;;45.28;20.25;;;;;;;1.59;100.00;99012.00;5091363;28;20724;-76
2021/11/27 10:23:44;;;;;;;45.85;18.95;;;;;;;1.57;100.00;98996.41;5091069;28;20061;-76
2021/11/27 10:26:28;;;;;;;;;;;;;;;1.41;100.00;98968.09;5073987;28;20019;-76
2021/11/27 10:28:54;;;;;;;46.15;20.95;;;;;;;1.42;100.00;98971.56;5073574;28;20310;-76
2021/11/27 10:31:28;;;;;;;46.20;21.00;;;;;;;1.66;100.00;99011.28;5073409;28;20044;-76
2021/11/27 10:34:00;;;;;;;51.17;21.40;;;;;;;1.79;100.00;99033.78;5090877;28;20042;-76
2021/11/27 10:36:31;;;;;;;47.70;19.58;;;;;;;1.86;100.00;99035.66;5090247;28;20043;-76
2021/11/27 10:39:05;;;;;;;44.53;20.70;;;;;;;2.07;100.00;99053.81;5090207;28;20027;-77
2021/11/27 10:41:37;;;;;;;49.70;21.42;;;;;;;1.82;100.00;98994.00;5090129;28;20054;-76
2021/11/27 10:44:10;;;;;;;46.80;19.95;;;;;;;1.75;100.00;98961.38;5089958;28;20095;-76
2021/11/27 10:46:38;;;;;;;43.10;20.55;;;;;;;1.99;100.00;99006.38;5091182;28;20473;-76
2021/11/27 10:49:06;;;;;;;49.42;21.23;;;;;;;2.02;100.00;98987.63;5090011;28;20464;-76
2021/11/27 10:51:33;;;;;;;53.17;22.48;;;;;;;2.07;100.00;98993.25;5090785;28;20039;-76
2021/11/27 10:54:02;;;;;;;45.55;21.10;;;;;;;2.15;100.00;98994.31;5072408;28;20476;-76
2021/11/27 10:56:50;;;;;;;51.25;20.95;;;;;;;2.29;100.00;98997.25;5072878;28;20040;-77
2021/11/27 10:59:17;;;;;;;45.67;19.65;;;;;;;2.15;100.00;98952.19;5089769;28;20454;-77
2021/11/27 11:01:59;;;;;;;47.65;20.83;;;;;;;2.02;100.00;98915.75;5089740;28;20067;-77
2021/11/27 11:04:25;;;;;;;44.63;19.08;;;;;;;2.11;100.00;98936.72;5089501;28;20480;-76
2021/11/27 11:06:50;;;;;;;42.47;20.38;;;;;;;2.13;100.00;98912.03;5089818;28;20036;-77
2021/11/27 11:09:16;;;;;;;43.15;20.83;;;;;;;1.80;100.00;98867.03;5090747;28;20062;-77
2021/11/27 11:11:41;;;;;;;42.40;20.50;;;;;;;1.66;100.00;98857.84;5090568;28;20435;-76
2021/11/27 11:14:25;;;;;;;42.90;19.33;;;;;;;1.69;100.00;98857.59;5089159;28;20028;-76
2021/11/27 11:16:59;;;;;;;38.20;17.88;;;;;;;1.68;100.00;98869.88;5089523;28;20044;-76
2021/11/27 11:19:25;;;;;;;45.08;21.58;;;;;;;1.93;100.00;98922.72;5089424;28;20386;-76
2021/11/27 11:22:09;;;;;;;46.22;19.55;;;;;;;2.11;100.00;98941.16;5072442;28;20060;-77
2021/11/27 11:24:37;;;;;;;46.05;21.48;;;;;;;2.18;100.00;98951.88;5089105;28;20055;-76